^^
Station Historical Data
 
Daily Summary for June 24, 2017 Units:  Both    English   Metric
« Previous Day
Next Day »
Daily Weekly Monthly Yearly Custom
  Current: High: Low: Average:
Temperature: 62.4 °F /  16.9 °C 65.7 °F /  18.7 °C 54.9 °F /  12.7 °C 61.9 °F /  16.6 °C
Dew Point: 31.5 °F /  -0.3 °C 34.2 °F /  1.2 °C 31.5 °F /  -0.3 °C 32.7 °F /  0.4 °C
Humidity: 31% 42% 29% 34%
Wind Speed: 6.0mph /  9.7km/h 16.1mph /  25.9km/h - -7.6mph /  -12.2km/h
Wind Gust: 6.0mph /  9.7km/h 26.0mph /  41.8km/h - -
WindNNE - -
Pressure: 30.32 in /  1026.6 hPa 30.44 in /  1030.7 hPa 30.31 in /  1026.3 hPa -
Precipitation: 0.00 in /  0 mm      
Historical Graphs
 
 
Tabular Data for June 24, 2017
Time Temperature Dew Point Pressure Wind Wind Speed Wind Gust Humidity Rainfall Rate (Hourly) solar Conditions
08:30 54.9 °F /  12.7 °C 32.2 °F /  0.1 °C 30.43in /  1030.4hPa North -999.9mph /  -1609.1km/h -999.0mph /  -1607.7km/h 42% 0.00in /  0mm meteobridge W/m2
08:37 55.2 °F /  12.9 °C 32.0 °F /  0 °C 30.44in /  1030.7hPa NNE 4.0mph /  6.4km/h 10.0mph /  16.1km/h 41% 0.00in /  0mm meteobridge W/m2
08:43 55.9 °F /  13.3 °C 32.5 °F /  0.3 °C 30.44in /  1030.7hPa NNE 6.9mph /  11.1km/h 11.0mph /  17.7km/h 41% 0.00in /  0mm meteobridge W/m2
08:49 56.1 °F /  13.4 °C 32.2 °F /  0.1 °C 30.44in /  1030.7hPa North 6.9mph /  11.1km/h 12.0mph /  19.3km/h 40% 0.00in /  0mm meteobridge W/m2
09:09 56.8 °F /  13.8 °C 32.7 °F /  0.4 °C 30.44in /  1030.7hPa North 6.0mph /  9.7km/h 11.0mph /  17.7km/h 40% 0.00in /  0mm meteobridge W/m2
09:15 57.6 °F /  14.2 °C 32.7 °F /  0.4 °C 30.44in /  1030.7hPa NE 10.1mph /  16.3km/h 14.0mph /  22.5km/h 39% 0.00in /  0mm meteobridge W/m2
09:21 57.6 °F /  14.2 °C 32.7 °F /  0.4 °C 30.44in /  1030.7hPa NE 6.9mph /  11.1km/h 9.0mph /  14.5km/h 39% 0.00in /  0mm meteobridge W/m2
09:28 57.9 °F /  14.4 °C 33.1 °F /  0.6 °C 30.44in /  1030.7hPa NNE 0.9mph /  1.4km/h 11.0mph /  17.7km/h 39% 0.00in /  0mm meteobridge W/m2
09:34 58.8 °F /  14.9 °C 33.3 °F /  0.7 °C 30.44in /  1030.7hPa NNE 2.0mph /  3.2km/h 10.0mph /  16.1km/h 38% 0.00in /  0mm meteobridge W/m2
09:40 59.4 °F /  15.2 °C 33.1 °F /  0.6 °C 30.44in /  1030.7hPa NNE 10.1mph /  16.3km/h 19.0mph /  30.6km/h 37% 0.00in /  0mm meteobridge W/m2
09:46 58.1 °F /  14.5 °C 32.0 °F /  0 °C 30.44in /  1030.7hPa NE 4.9mph /  7.9km/h 18.0mph /  29km/h 37% 0.00in /  0mm meteobridge W/m2
09:52 58.8 °F /  14.9 °C 32.5 °F /  0.3 °C 30.44in /  1030.7hPa NE 10.1mph /  16.3km/h 19.0mph /  30.6km/h 37% 0.00in /  0mm meteobridge W/m2
09:58 58.5 °F /  14.7 °C 31.6 °F /  -0.2 °C 30.44in /  1030.7hPa North 10.1mph /  16.3km/h 20.0mph /  32.2km/h 36% 0.00in /  0mm meteobridge W/m2
10:04 58.8 °F /  14.9 °C 32.0 °F /  0 °C 30.44in /  1030.7hPa North 12.1mph /  19.5km/h 19.0mph /  30.6km/h 36% 0.00in /  0mm meteobridge W/m2
10:11 59.4 °F /  15.2 °C 32.4 °F /  0.2 °C 30.44in /  1030.7hPa NE 10.1mph /  16.3km/h 16.0mph /  25.7km/h 36% 0.00in /  0mm meteobridge W/m2
10:13 59.4 °F /  15.2 °C 31.6 °F /  -0.2 °C 30.44in /  1030.7hPa NE 10.1mph /  16.3km/h 16.0mph /  25.7km/h 35% 0.00in /  0mm meteobridge W/m2
10:29 58.8 °F /  14.9 °C 32.0 °F /  0 °C 30.44in /  1030.7hPa North 16.1mph /  25.9km/h 22.0mph /  35.4km/h 36% 0.00in /  0mm meteobridge W/m2
10:35 59.5 °F /  15.3 °C 31.8 °F /  -0.1 °C 30.43in /  1030.4hPa NE 6.9mph /  11.1km/h 17.0mph /  27.4km/h 35% 0.00in /  0mm meteobridge W/m2
10:41 60.3 °F /  15.7 °C 32.5 °F /  0.3 °C 30.43in /  1030.4hPa North 16.1mph /  25.9km/h 26.0mph /  41.8km/h 35% 0.00in /  0mm meteobridge W/m2
10:47 60.6 °F /  15.9 °C 32.2 °F /  0.1 °C 30.42in /  1030hPa NE 14.1mph /  22.7km/h 16.0mph /  25.7km/h 34% 0.00in /  0mm meteobridge W/m2
10:53 61.2 °F /  16.2 °C 32.5 °F /  0.3 °C 30.42in /  1030hPa ENE 2.0mph /  3.2km/h 14.0mph /  22.5km/h 34% 0.00in /  0mm meteobridge W/m2
10:59 61.3 °F /  16.3 °C 32.7 °F /  0.4 °C 30.42in /  1030hPa NE 2.9mph /  4.7km/h 16.0mph /  25.7km/h 34% 0.00in /  0mm meteobridge W/m2
11:06 61.9 °F /  16.6 °C 33.3 °F /  0.7 °C 30.42in /  1030hPa ENE 4.0mph /  6.4km/h 13.0mph /  20.9km/h 34% 0.00in /  0mm meteobridge W/m2
11:12 62.1 °F /  16.7 °C 33.4 °F /  0.8 °C 30.41in /  1029.7hPa NNE 8.9mph /  14.3km/h 14.0mph /  22.5km/h 34% 0.00in /  0mm meteobridge W/m2
11:18 62.1 °F /  16.7 °C 33.4 °F /  0.8 °C 30.41in /  1029.7hPa NE 11.0mph /  17.7km/h 16.0mph /  25.7km/h 34% 0.00in /  0mm meteobridge W/m2
11:24 62.8 °F /  17.1 °C 34.0 °F /  1.1 °C 30.41in /  1029.7hPa NNE 10.1mph /  16.3km/h 14.0mph /  22.5km/h 34% 0.00in /  0mm meteobridge W/m2
11:30 63.0 °F /  17.2 °C 32.7 °F /  0.4 °C 30.41in /  1029.7hPa NNE 12.1mph /  19.5km/h 16.0mph /  25.7km/h 32% 0.00in /  0mm meteobridge W/m2
11:36 62.8 °F /  17.1 °C 33.3 °F /  0.7 °C 30.40in /  1029.3hPa ESE 2.9mph /  4.7km/h 9.0mph /  14.5km/h 33% 0.00in /  0mm meteobridge W/m2
11:42 63.9 °F /  17.7 °C 34.2 °F /  1.2 °C 30.40in /  1029.3hPa NW 2.0mph /  3.2km/h 7.0mph /  11.3km/h 33% 0.00in /  0mm meteobridge W/m2
11:48 63.3 °F /  17.4 °C 32.9 °F /  0.5 °C 30.40in /  1029.3hPa North 6.0mph /  9.7km/h 15.0mph /  24.1km/h 32% 0.00in /  0mm meteobridge W/m2
11:55 63.0 °F /  17.2 °C 33.4 °F /  0.8 °C 30.39in /  1029hPa North 11.0mph /  17.7km/h 16.0mph /  25.7km/h 33% 0.00in /  0mm meteobridge W/m2
12:01 63.0 °F /  17.2 °C 33.4 °F /  0.8 °C 30.39in /  1029hPa NNE 11.0mph /  17.7km/h 21.0mph /  33.8km/h 33% 0.00in /  0mm meteobridge W/m2
12:07 62.8 °F /  17.1 °C 33.3 °F /  0.7 °C 30.38in /  1028.7hPa ENE 2.0mph /  3.2km/h 10.0mph /  16.1km/h 33% 0.00in /  0mm meteobridge W/m2
12:13 63.3 °F /  17.4 °C 32.9 °F /  0.5 °C 30.38in /  1028.7hPa North 11.0mph /  17.7km/h 11.0mph /  17.7km/h 32% 0.00in /  0mm meteobridge W/m2
12:19 63.5 °F /  17.5 °C 33.1 °F /  0.6 °C 30.37in /  1028.3hPa NNE 16.1mph /  25.9km/h 22.0mph /  35.4km/h 32% 0.00in /  0mm meteobridge W/m2
12:25 62.8 °F /  17.1 °C 32.5 °F /  0.3 °C 30.37in /  1028.3hPa NNE 11.0mph /  17.7km/h 14.0mph /  22.5km/h 32% 0.00in /  0mm meteobridge W/m2
12:31 62.8 °F /  17.1 °C 33.3 °F /  0.7 °C 30.37in /  1028.3hPa North 14.1mph /  22.7km/h 14.1mph /  22.7km/h 33% 0.00in /  0mm meteobridge W/m2
12:37 63.3 °F /  17.4 °C 32.9 °F /  0.5 °C 30.36in /  1028hPa NNE 4.9mph /  7.9km/h 20.0mph /  32.2km/h 32% 0.00in /  0mm meteobridge W/m2
12:44 64.2 °F /  17.9 °C 32.9 °F /  0.5 °C 30.36in /  1028hPa NE 11.0mph /  17.7km/h 19.0mph /  30.6km/h 31% 0.00in /  0mm meteobridge W/m2
13:04 64.0 °F /  17.8 °C 32.7 °F /  0.4 °C 30.34in /  1027.3hPa NE 13.0mph /  20.9km/h 13.0mph /  20.9km/h 31% 0.00in /  0mm meteobridge W/m2
13:10 63.9 °F /  17.7 °C 32.7 °F /  0.4 °C 30.34in /  1027.3hPa NNW 8.1mph /  13km/h 15.0mph /  24.1km/h 31% 0.00in /  0mm meteobridge W/m2
13:16 64.0 °F /  17.8 °C 32.7 °F /  0.4 °C 30.34in /  1027.3hPa NNE 13.0mph /  20.9km/h 13.0mph /  20.9km/h 31% 0.00in /  0mm meteobridge W/m2
13:22 63.7 °F /  17.6 °C 32.5 °F /  0.3 °C 30.33in /  1027hPa NE 4.0mph /  6.4km/h 12.0mph /  19.3km/h 31% 0.00in /  0mm meteobridge W/m2
13:28 64.0 °F /  17.8 °C 32.7 °F /  0.4 °C 30.33in /  1027hPa NE 10.1mph /  16.3km/h 17.0mph /  27.4km/h 31% 0.00in /  0mm meteobridge W/m2
13:35 64.4 °F /  18 °C 33.1 °F /  0.6 °C 30.33in /  1027hPa NE 12.1mph /  19.5km/h 18.0mph /  29km/h 31% 0.00in /  0mm meteobridge W/m2
13:41 64.8 °F /  18.2 °C 32.5 °F /  0.3 °C 30.33in /  1027hPa North 4.9mph /  7.9km/h 13.0mph /  20.9km/h 30% 0.00in /  0mm meteobridge W/m2
13:47 64.9 °F /  18.3 °C 32.7 °F /  0.4 °C 30.32in /  1026.6hPa NNE 8.1mph /  13km/h 15.0mph /  24.1km/h 30% 0.00in /  0mm meteobridge W/m2
13:53 64.9 °F /  18.3 °C 32.7 °F /  0.4 °C 30.32in /  1026.6hPa NNE 4.0mph /  6.4km/h 14.0mph /  22.5km/h 30% 0.00in /  0mm meteobridge W/m2
13:59 64.8 °F /  18.2 °C 32.5 °F /  0.3 °C 30.32in /  1026.6hPa North 8.9mph /  14.3km/h 13.0mph /  20.9km/h 30% 0.00in /  0mm meteobridge W/m2
14:05 64.8 °F /  18.2 °C 32.5 °F /  0.3 °C 30.32in /  1026.6hPa North 15.0mph /  24.1km/h 15.0mph /  24.1km/h 30% 0.00in /  0mm meteobridge W/m2
14:24 65.7 °F /  18.7 °C 33.4 °F /  0.8 °C 30.31in /  1026.3hPa NNW 6.9mph /  11.1km/h 14.0mph /  22.5km/h 30% 0.00in /  0mm meteobridge W/m2
14:30 65.3 °F /  18.5 °C 33.1 °F /  0.6 °C 30.31in /  1026.3hPa North 2.9mph /  4.7km/h 5.0mph /  8km/h 30% 0.00in /  0mm meteobridge W/m2
14:36 64.9 °F /  18.3 °C 33.6 °F /  0.9 °C 30.32in /  1026.6hPa NNE 2.9mph /  4.7km/h 17.0mph /  27.4km/h 31% 0.00in /  0mm meteobridge W/m2
14:59 65.5 °F /  18.6 °C 32.4 °F /  0.2 °C 30.32in /  1026.6hPa NNE 13.0mph /  20.9km/h 16.0mph /  25.7km/h 29% 0.00in /  0mm meteobridge W/m2
15:05 64.6 °F /  18.1 °C 33.3 °F /  0.7 °C 30.31in /  1026.3hPa North 8.9mph /  14.3km/h 9.0mph /  14.5km/h 31% 0.00in /  0mm meteobridge W/m2
15:25 64.6 °F /  18.1 °C 32.4 °F /  0.2 °C 30.31in /  1026.3hPa NNE 11.0mph /  17.7km/h 14.0mph /  22.5km/h 30% 0.00in /  0mm meteobridge W/m2
15:31 64.4 °F /  18 °C 32.4 °F /  0.2 °C 30.31in /  1026.3hPa ENE 2.9mph /  4.7km/h 14.0mph /  22.5km/h 30% 0.00in /  0mm meteobridge W/m2
15:53 63.9 °F /  17.7 °C 32.7 °F /  0.4 °C 30.32in /  1026.6hPa NNE 6.0mph /  9.7km/h 7.0mph /  11.3km/h 31% 0.00in /  0mm meteobridge W/m2
15:59 63.9 °F /  17.7 °C 32.7 °F /  0.4 °C 30.32in /  1026.6hPa NE 8.9mph /  14.3km/h 18.0mph /  29km/h 31% 0.00in /  0mm meteobridge W/m2
16:05 63.7 °F /  17.6 °C 32.5 °F /  0.3 °C 30.32in /  1026.6hPa NNE 2.9mph /  4.7km/h 10.0mph /  16.1km/h 31% 0.00in /  0mm meteobridge W/m2
16:12 63.3 °F /  17.4 °C 32.9 °F /  0.5 °C 30.31in /  1026.3hPa North 2.9mph /  4.7km/h 4.0mph /  6.4km/h 32% 0.00in /  0mm meteobridge W/m2
16:18 63.0 °F /  17.2 °C 31.8 °F /  -0.1 °C 30.32in /  1026.6hPa North 10.1mph /  16.3km/h 12.0mph /  19.3km/h 31% 0.00in /  0mm meteobridge W/m2
16:24 62.8 °F /  17.1 °C 31.6 °F /  -0.2 °C 30.32in /  1026.6hPa North 6.0mph /  9.7km/h 12.0mph /  19.3km/h 31% 0.00in /  0mm meteobridge W/m2
16:30 62.4 °F /  16.9 °C 31.5 °F /  -0.3 °C 30.32in /  1026.6hPa NNE 6.0mph /  9.7km/h 6.0mph /  9.7km/h 31% 0.00in /  0mm meteobridge W/m2
Regenstein, Windhoek, Namibia
Compliments of Weather Underground - 3 mb